aviador You're here:

FASI Decoded Metar

SPRINGS in SOUTH AFRICA
Report Time2017-10-22 06:00:00
UTC Time2017-10-22 06:35:17
Flight Rules unknown UNKNOWN
Wind010° at 06 kt
W.Decomp.*RWY 03: 6.0 kt HW 0.4 kt LCW
RWY 32: 2.4 kt HW 5.5 kt RCW
W.Rank010° ranks 20
Current wind is above 010° avg. (3.4)
VisibilityN/A
Phenomena:N/A
Clouds:N/A
Expected CloudBase > 1,600 ft AGL from Temp-Dew spread
CeilingNone
Temp16°C (ISA +12)
Dew Point12°C (77% RH)
AAT14.4°C
QNH1032 hPa
Density Alt6,263 ft
Elevation5,341 ft
Report Wrong Elevation
Raw Report
FASI 220600Z AUTO 01006KT //// // ////// 16/12 Q1032=

Extra information for FASI:More info

Metar Taf Metar & Taf Last 4 Metars F.Rules Stats Wind Profile Meteogram Temp Stats Airport Information Weather charts Add Link Nearby VenuesMetar ALERT Operation Metar Decoded Social comments